createdAt,value
2022-10-19T00:00:12.357Z,33.52
2022-10-19T00:00:42.377Z,33.65
2022-10-19T00:01:12.364Z,33.80
2022-10-19T00:01:42.378Z,33.67
2022-10-19T00:02:12.482Z,33.29
2022-10-19T00:02:42.375Z,33.45
2022-10-19T00:03:12.396Z,33.21
2022-10-19T00:03:42.423Z,33.19
2022-10-19T00:04:12.403Z,33.12
2022-10-19T00:04:42.491Z,33.22
2022-10-19T00:05:12.471Z,33.01
2022-10-19T00:05:42.574Z,33.15
2022-10-19T00:06:12.545Z,33.35
2022-10-19T00:06:42.627Z,33.30
2022-10-19T00:07:12.626Z,33.25
2022-10-19T00:07:42.605Z,32.94
2022-10-19T00:08:12.711Z,33.32
2022-10-19T00:08:42.824Z,32.99
2022-10-19T00:09:12.810Z,33.08
2022-10-19T00:09:42.800Z,33.32
2022-10-19T00:10:12.818Z,31.33
2022-10-19T00:10:42.911Z,31.02
2022-10-19T00:11:12.785Z,31.00
2022-10-19T00:11:42.779Z,30.97
2022-10-19T00:12:12.752Z,30.94
2022-10-19T00:12:42.820Z,30.86
2022-10-19T00:13:12.736Z,30.86
2022-10-19T00:13:42.732Z,30.87
2022-10-19T00:14:12.696Z,30.84
2022-10-19T00:14:42.800Z,30.87
2022-10-19T00:15:12.777Z,30.82
2022-10-19T00:15:42.889Z,30.92
2022-10-19T00:16:12.859Z,30.87
2022-10-19T00:16:42.921Z,30.83
2022-10-19T00:17:12.999Z,30.82
2022-10-19T00:17:43.111Z,30.83
2022-10-19T00:18:13.103Z,30.84
2022-10-19T00:18:43.131Z,30.86
2022-10-19T00:19:13.147Z,30.83
2022-10-19T00:19:43.131Z,30.87
2022-10-19T00:20:13.107Z,30.82
2022-10-19T00:20:43.095Z,30.83
2022-10-19T00:21:13.079Z,30.86
2022-10-19T00:21:43.094Z,30.85
2022-10-19T00:22:14.068Z,31.05
2022-10-19T00:22:43.102Z,30.89
2022-10-19T00:23:13.123Z,30.81
2022-10-19T00:23:43.144Z,30.84
2022-10-19T00:24:13.137Z,30.86
2022-10-19T00:24:43.145Z,30.91
2022-10-19T00:25:13.111Z,30.81
2022-10-19T00:25:44.129Z,30.87
2022-10-19T00:26:13.250Z,30.84
2022-10-19T00:26:44.151Z,30.85
2022-10-19T00:27:14.116Z,30.80
2022-10-19T00:27:43.487Z,30.84
2022-10-19T00:28:13.466Z,30.83
2022-10-19T00:28:43.664Z,30.83
2022-10-19T00:29:13.870Z,30.86
2022-10-19T00:29:43.617Z,31.00
2022-10-19T00:30:13.601Z,30.81
2022-10-19T00:30:44.632Z,30.81
2022-10-19T00:31:14.598Z,30.80
2022-10-19T00:31:43.825Z,30.83
2022-10-19T00:32:13.805Z,30.85
2022-10-19T00:32:44.608Z,30.81
2022-10-19T00:33:14.629Z,30.83
2022-10-19T00:33:44.026Z,30.81
2022-10-19T00:34:14.085Z,30.82
2022-10-19T00:34:44.066Z,30.83
2022-10-19T00:35:14.671Z,30.82
2022-10-19T00:35:46.617Z,30.86
2022-10-19T00:36:14.199Z,30.79
2022-10-19T00:36:44.200Z,30.86
2022-10-19T00:37:15.109Z,30.79
2022-10-19T00:37:44.268Z,30.84
2022-10-19T00:38:14.219Z,30.80
2022-10-19T00:38:44.204Z,30.86
2022-10-19T00:39:14.232Z,30.82
2022-10-19T00:39:44.258Z,30.83
2022-10-19T00:40:14.227Z,30.87
2022-10-19T00:40:44.279Z,30.92
2022-10-19T00:41:14.265Z,30.82
2022-10-19T00:41:44.255Z,30.82
2022-10-19T00:42:14.240Z,30.84
2022-10-19T00:42:44.248Z,30.88
2022-10-19T00:43:14.245Z,30.80
2022-10-19T00:43:44.221Z,30.87
2022-10-19T00:44:15.195Z,30.82
2022-10-19T00:44:45.181Z,30.83
2022-10-19T00:45:14.193Z,30.81
2022-10-19T00:45:44.185Z,30.85
2022-10-19T00:46:15.122Z,30.81
2022-10-19T00:46:44.154Z,30.88
2022-10-19T00:47:14.128Z,30.79
2022-10-19T00:47:44.234Z,30.89
2022-10-19T00:48:14.319Z,30.80
2022-10-19T00:48:44.331Z,30.86
2022-10-19T00:49:14.318Z,30.80
2022-10-19T00:49:44.322Z,30.87
2022-10-19T00:50:14.406Z,30.82
2022-10-19T00:50:44.430Z,30.84
2022-10-19T00:51:15.124Z,30.84
2022-10-19T00:51:44.437Z,30.95
2022-10-19T00:52:14.519Z,30.82
2022-10-19T00:52:44.639Z,30.81
2022-10-19T00:53:14.598Z,30.82
2022-10-19T00:53:44.701Z,30.86
2022-10-19T00:54:14.693Z,30.81
2022-10-19T00:54:44.726Z,30.84
2022-10-19T00:55:14.796Z,30.82
2022-10-19T00:55:44.779Z,30.87
2022-10-19T00:56:14.768Z,30.83
2022-10-19T00:56:44.783Z,30.77
2022-10-19T00:57:14.810Z,30.84
2022-10-19T00:57:44.844Z,30.89
2022-10-19T00:58:14.846Z,30.90
2022-10-19T00:58:44.918Z,30.86
2022-10-19T00:59:14.904Z,30.84
2022-10-19T00:59:44.920Z,30.86
2022-10-19T01:00:15.013Z,30.74
2022-10-19T01:00:44.958Z,30.56
2022-10-19T01:01:14.937Z,30.54
2022-10-19T01:01:44.927Z,30.55
2022-10-19T01:02:15.031Z,30.55
2022-10-19T01:02:45.026Z,30.66
2022-10-19T01:03:15.255Z,30.82
2022-10-19T01:03:45.622Z,30.99
2022-10-19T01:04:15.083Z,30.82
2022-10-19T01:04:45.044Z,30.83
2022-10-19T01:05:15.150Z,30.92
2022-10-19T01:05:45.282Z,31.00
2022-10-19T01:06:16.018Z,30.98
2022-10-19T01:06:45.285Z,30.85
2022-10-19T01:07:15.302Z,30.79
2022-10-19T01:07:45.278Z,30.82
2022-10-19T01:08:15.364Z,30.80
2022-10-19T01:08:45.342Z,30.83
2022-10-19T01:09:15.327Z,30.78
2022-10-19T01:09:45.460Z,30.88
2022-10-19T01:10:15.402Z,30.84
2022-10-19T01:10:45.386Z,30.85
2022-10-19T01:11:15.364Z,30.77
2022-10-19T01:11:47.216Z,30.79
2022-10-19T01:12:15.433Z,30.79
2022-10-19T01:12:45.412Z,30.82
2022-10-19T01:13:15.500Z,30.81
2022-10-19T01:13:45.455Z,30.82
2022-10-19T01:14:15.446Z,30.79
2022-10-19T01:14:46.122Z,30.79
2022-10-19T01:15:15.616Z,30.79
2022-10-19T01:15:45.673Z,30.81
2022-10-19T01:16:15.681Z,30.89
2022-10-19T01:16:45.749Z,30.82
2022-10-19T01:17:15.765Z,30.76
2022-10-19T01:17:45.766Z,30.85
2022-10-19T01:18:15.748Z,30.74
2022-10-19T01:18:45.741Z,30.76
2022-10-19T01:19:15.719Z,30.76
2022-10-19T01:19:45.734Z,30.82
2022-10-19T01:20:15.718Z,30.78
2022-10-19T01:20:45.697Z,30.78
2022-10-19T01:21:15.727Z,30.80
2022-10-19T01:21:45.719Z,30.78
2022-10-19T01:22:15.692Z,30.77
2022-10-19T01:22:45.911Z,30.83
2022-10-19T01:23:15.793Z,30.82
2022-10-19T01:23:46.628Z,30.77
2022-10-19T01:24:15.885Z,30.78
2022-10-19T01:24:45.968Z,30.83
2022-10-19T01:25:15.944Z,30.77
2022-10-19T01:25:46.035Z,30.81
2022-10-19T01:26:15.996Z,30.78
2022-10-19T01:26:45.961Z,30.83
2022-10-19T01:27:16.062Z,30.82
2022-10-19T01:27:46.030Z,30.91
2022-10-19T01:28:16.692Z,30.85
2022-10-19T01:28:46.192Z,30.84
2022-10-19T01:29:16.201Z,30.88
2022-10-19T01:29:47.251Z,30.83
2022-10-19T01:30:16.276Z,30.81
2022-10-19T01:30:47.153Z,30.84
2022-10-19T01:31:16.332Z,30.82
2022-10-19T01:31:46.451Z,30.97
2022-10-19T01:32:16.311Z,30.94
2022-10-19T01:32:46.427Z,30.86
2022-10-19T01:33:16.311Z,30.83
2022-10-19T01:33:46.372Z,30.78
2022-10-19T01:34:16.347Z,31.34
2022-10-19T01:34:46.333Z,33.01
2022-10-19T01:35:16.569Z,32.58
2022-10-19T01:35:46.346Z,32.99
2022-10-19T01:36:16.412Z,33.10
2022-10-19T01:36:46.372Z,33.31
2022-10-19T01:37:16.354Z,33.43
2022-10-19T01:37:47.165Z,33.44
2022-10-19T01:38:16.412Z,33.47
2022-10-19T01:38:46.553Z,33.46
2022-10-19T01:39:15.472Z,33.52
2022-10-19T01:39:49.188Z,33.42
2022-10-19T01:40:18.166Z,33.39
2022-10-19T01:40:46.657Z,33.34
2022-10-19T01:41:16.653Z,33.37
2022-10-19T01:41:46.584Z,33.29
2022-10-19T01:42:16.587Z,33.34
2022-10-19T01:42:46.736Z,33.56
2022-10-19T01:43:16.639Z,33.53
2022-10-19T01:43:46.661Z,33.55
2022-10-19T01:44:16.665Z,33.60
2022-10-19T01:44:46.653Z,33.59
2022-10-19T01:45:16.850Z,33.73
2022-10-19T01:45:46.826Z,34.01
2022-10-19T01:46:17.631Z,34.04
2022-10-19T01:46:46.962Z,34.51
2022-10-19T01:47:16.961Z,33.85
2022-10-19T01:47:47.072Z,33.78
2022-10-19T01:48:17.026Z,33.74
2022-10-19T01:48:47.005Z,34.50
2022-10-19T01:49:17.124Z,33.74
2022-10-19T01:49:47.152Z,33.66
2022-10-19T01:50:17.158Z,33.71
2022-10-19T01:50:47.150Z,33.81
2022-10-19T01:51:17.168Z,33.87
2022-10-19T01:51:47.248Z,33.81
2022-10-19T01:52:17.322Z,33.82
2022-10-19T01:52:48.128Z,33.77
2022-10-19T01:53:17.345Z,33.61
2022-10-19T01:53:47.739Z,33.74
2022-10-19T01:54:17.386Z,33.71
2022-10-19T01:54:47.492Z,33.72
2022-10-19T01:55:17.481Z,33.66
2022-10-19T01:55:47.529Z,33.76
2022-10-19T01:56:17.506Z,33.76
2022-10-19T01:56:47.711Z,33.59
2022-10-19T01:57:17.582Z,33.59
2022-10-19T01:57:47.634Z,33.78
2022-10-19T01:58:17.637Z,33.33
2022-10-19T01:58:47.631Z,33.29
2022-10-19T01:59:17.692Z,33.70
2022-10-19T01:59:47.694Z,33.18
2022-10-19T02:00:17.690Z,33.47
2022-10-19T02:00:50.834Z,33.31
2022-10-19T02:01:17.718Z,33.47
2022-10-19T02:01:47.705Z,33.33
2022-10-19T02:02:17.822Z,33.40
2022-10-19T02:02:47.815Z,33.21
2022-10-19T02:03:17.830Z,32.98
2022-10-19T02:03:47.814Z,33.06
2022-10-19T02:04:17.819Z,33.60
2022-10-19T02:04:47.856Z,33.19
2022-10-19T02:05:17.869Z,32.90
2022-10-19T02:05:47.854Z,33.14
2022-10-19T02:06:17.941Z,33.22
2022-10-19T02:06:47.925Z,33.00
2022-10-19T02:07:17.915Z,33.31
2022-10-19T02:07:47.925Z,33.15
2022-10-19T02:08:17.932Z,33.10
2022-10-19T02:08:47.914Z,33.42
2022-10-19T02:09:18.664Z,32.92
2022-10-19T02:09:47.933Z,33.11
2022-10-19T02:10:17.942Z,33.29
2022-10-19T02:10:48.711Z,32.87
2022-10-19T02:11:17.942Z,33.41
2022-10-19T02:11:49.678Z,33.10
2022-10-19T02:12:18.015Z,32.98
2022-10-19T02:12:48.034Z,33.74
2022-10-19T02:13:18.017Z,33.27
2022-10-19T02:13:48.000Z,33.03
2022-10-19T02:14:18.832Z,33.18
2022-10-19T02:14:48.129Z,33.10
2022-10-19T02:15:18.152Z,32.99
2022-10-19T02:15:48.139Z,33.24
2022-10-19T02:16:18.120Z,33.11
2022-10-19T02:16:48.111Z,33.08
2022-10-19T02:17:18.099Z,33.09
2022-10-19T02:17:48.075Z,33.13
2022-10-19T02:18:18.129Z,33.35
2022-10-19T02:18:48.281Z,33.18
2022-10-19T02:19:18.163Z,33.34
2022-10-19T02:19:48.174Z,32.95
2022-10-19T02:20:18.213Z,33.03
2022-10-19T02:20:48.189Z,32.11
2022-10-19T02:21:18.382Z,30.99
2022-10-19T02:21:48.326Z,30.96
2022-10-19T02:22:18.438Z,30.85
2022-10-19T02:22:48.350Z,30.91
2022-10-19T02:23:18.370Z,30.85
2022-10-19T02:23:50.523Z,30.81
2022-10-19T02:24:18.339Z,30.80
2022-10-19T02:24:48.430Z,30.81
2022-10-19T02:25:18.474Z,30.79
2022-10-19T02:25:48.459Z,30.80
2022-10-19T02:26:18.432Z,30.79
2022-10-19T02:26:48.500Z,30.79
2022-10-19T02:27:19.361Z,30.81
2022-10-19T02:27:48.530Z,30.75
2022-10-19T02:28:18.601Z,30.79
2022-10-19T02:28:48.639Z,30.82
2022-10-19T02:29:19.169Z,30.76
2022-10-19T02:29:48.562Z,30.76
2022-10-19T02:30:18.551Z,30.83
2022-10-19T02:30:48.592Z,30.81
2022-10-19T02:31:18.773Z,30.87
2022-10-19T02:31:48.609Z,30.87
2022-10-19T02:32:18.730Z,30.91
2022-10-19T02:32:48.815Z,30.84
2022-10-19T02:33:18.812Z,30.83
2022-10-19T02:33:48.891Z,30.84
2022-10-19T02:34:19.751Z,30.81
2022-10-19T02:34:48.883Z,30.88
2022-10-19T02:35:18.908Z,30.79
2022-10-19T02:35:48.974Z,30.81
2022-10-19T02:36:18.959Z,30.80
2022-10-19T02:36:48.973Z,30.84
2022-10-19T02:37:22.058Z,30.84
2022-10-19T02:37:49.034Z,30.83
2022-10-19T02:38:19.103Z,30.88
2022-10-19T02:38:49.062Z,30.83
2022-10-19T02:39:19.852Z,30.84
2022-10-19T02:39:49.218Z,30.89
2022-10-19T02:40:19.228Z,30.81
2022-10-19T02:40:49.249Z,30.86
2022-10-19T02:41:19.255Z,31.02
2022-10-19T02:41:49.259Z,30.88
2022-10-19T02:42:19.252Z,30.88
2022-10-19T02:42:49.333Z,30.92
2022-10-19T02:43:19.330Z,30.80
2022-10-19T02:43:49.328Z,30.80
2022-10-19T02:44:19.354Z,30.84
2022-10-19T02:44:49.340Z,30.79
2022-10-19T02:45:19.529Z,30.79
2022-10-19T02:45:49.382Z,30.83
2022-10-19T02:46:19.356Z,30.84
2022-10-19T02:46:49.381Z,30.78
2022-10-19T02:47:19.391Z,30.83
2022-10-19T02:47:49.408Z,30.78
2022-10-19T02:48:19.393Z,30.87
2022-10-19T02:48:49.426Z,30.80
2022-10-19T02:49:19.618Z,30.83
2022-10-19T02:49:49.487Z,30.82
2022-10-19T02:50:19.478Z,30.77
2022-10-19T02:50:49.481Z,30.79
2022-10-19T02:51:19.582Z,30.78
2022-10-19T02:51:49.571Z,30.76
2022-10-19T02:52:20.253Z,30.82
2022-10-19T02:52:50.175Z,30.86
2022-10-19T02:53:19.640Z,30.75
2022-10-19T02:53:50.238Z,30.77
2022-10-19T02:54:19.694Z,30.77
2022-10-19T02:54:50.670Z,30.75
2022-10-19T02:55:19.805Z,30.86
2022-10-19T02:55:49.817Z,30.75
2022-10-19T02:56:19.898Z,30.75
2022-10-19T02:56:49.925Z,30.82
2022-10-19T02:57:20.722Z,30.85
2022-10-19T02:57:49.973Z,30.94
2022-10-19T02:58:19.980Z,30.93
2022-10-19T02:58:49.985Z,30.80
2022-10-19T02:59:20.003Z,30.76
2022-10-19T02:59:49.980Z,30.77
2022-10-19T03:00:19.979Z,30.75
2022-10-19T03:00:50.063Z,30.77
2022-10-19T03:01:20.145Z,30.79
2022-10-19T03:01:50.091Z,30.81
2022-10-19T03:02:20.080Z,30.80
2022-10-19T03:02:50.044Z,30.75
2022-10-19T03:03:20.132Z,30.78
2022-10-19T03:03:50.164Z,30.79
2022-10-19T03:04:20.218Z,30.82
2022-10-19T03:04:50.201Z,30.76
2022-10-19T03:05:20.205Z,30.74
2022-10-19T03:05:50.319Z,30.76
2022-10-19T03:06:20.402Z,30.77
2022-10-19T03:06:50.204Z,30.76
2022-10-19T03:07:20.301Z,30.74
2022-10-19T03:07:50.349Z,30.77
2022-10-19T03:08:20.330Z,30.72
2022-10-19T03:08:50.335Z,30.79
2022-10-19T03:09:20.431Z,30.75
2022-10-19T03:09:50.351Z,30.78
2022-10-19T03:10:20.370Z,30.79
2022-10-19T03:10:50.339Z,30.79
2022-10-19T03:11:20.440Z,30.77
2022-10-19T03:11:50.489Z,30.77
2022-10-19T03:12:20.499Z,30.81
2022-10-19T03:12:51.276Z,30.82
2022-10-19T03:13:20.521Z,31.05
2022-10-19T03:13:50.628Z,30.78
2022-10-19T03:14:21.179Z,30.80
2022-10-19T03:14:50.534Z,30.76
2022-10-19T03:15:20.600Z,30.77
2022-10-19T03:15:50.728Z,30.79
2022-10-19T03:16:20.804Z,30.77
2022-10-19T03:16:50.823Z,30.78
2022-10-19T03:17:20.809Z,30.98
2022-10-19T03:17:50.864Z,30.80
2022-10-19T03:18:20.881Z,30.94
2022-10-19T03:18:50.936Z,30.78
2022-10-19T03:19:20.908Z,30.79
2022-10-19T03:19:50.981Z,30.78
2022-10-19T03:20:20.985Z,30.78
2022-10-19T03:20:51.116Z,30.82
2022-10-19T03:21:21.752Z,30.77
2022-10-19T03:21:51.219Z,30.77
2022-10-19T03:22:21.016Z,30.83
2022-10-19T03:22:51.068Z,30.77
2022-10-19T03:23:21.058Z,30.78
2022-10-19T03:23:51.070Z,30.79
2022-10-19T03:24:21.159Z,30.79
2022-10-19T03:24:51.143Z,30.72
2022-10-19T03:25:21.708Z,30.73
2022-10-19T03:25:51.181Z,30.87
2022-10-19T03:26:21.227Z,30.74
2022-10-19T03:26:51.209Z,30.84
2022-10-19T03:27:21.204Z,30.94
2022-10-19T03:27:51.248Z,30.79
2022-10-19T03:28:21.226Z,30.74
2022-10-19T03:28:51.321Z,30.73
2022-10-19T03:29:21.327Z,30.73
2022-10-19T03:29:51.327Z,30.76
2022-10-19T03:30:22.177Z,30.77
2022-10-19T03:30:52.192Z,31.29
2022-10-19T03:31:21.424Z,30.82
2022-10-19T03:31:51.529Z,30.79
2022-10-19T03:32:21.586Z,30.81
2022-10-19T03:32:51.562Z,30.77
2022-10-19T03:33:21.585Z,30.84
2022-10-19T03:33:51.650Z,30.86
2022-10-19T03:34:21.665Z,30.90
2022-10-19T03:34:51.659Z,30.91
2022-10-19T03:35:21.655Z,30.82
2022-10-19T03:35:51.654Z,30.78
2022-10-19T03:36:21.666Z,30.80
2022-10-19T03:36:52.764Z,30.77
2022-10-19T03:37:21.699Z,30.81
2022-10-19T03:37:52.188Z,30.82
2022-10-19T03:38:21.735Z,30.86
2022-10-19T03:38:51.763Z,30.94
2022-10-19T03:39:21.738Z,30.95
2022-10-19T03:39:51.751Z,30.84
2022-10-19T03:40:21.733Z,30.81
2022-10-19T03:40:51.735Z,30.79
2022-10-19T03:41:21.712Z,30.81
2022-10-19T03:41:51.795Z,30.84
2022-10-19T03:42:22.219Z,30.79
2022-10-19T03:42:52.702Z,30.85
2022-10-19T03:43:21.938Z,30.80
2022-10-19T03:43:51.969Z,30.86
2022-10-19T03:44:21.984Z,30.78
2022-10-19T03:44:52.712Z,31.01
2022-10-19T03:45:22.699Z,30.83
2022-10-19T03:45:52.061Z,30.80
2022-10-19T03:46:22.052Z,30.81
2022-10-19T03:46:52.042Z,30.84
2022-10-19T03:47:22.072Z,31.61
2022-10-19T03:47:52.116Z,32.90
2022-10-19T03:48:22.883Z,32.93
2022-10-19T03:48:52.202Z,32.84
2022-10-19T03:49:22.392Z,33.08
2022-10-19T03:49:52.368Z,33.33
2022-10-19T03:50:22.354Z,33.32
2022-10-19T03:50:52.341Z,33.36
2022-10-19T03:51:22.345Z,33.77
2022-10-19T03:51:52.350Z,33.49
2022-10-19T03:52:22.363Z,33.37
2022-10-19T03:52:52.419Z,33.38
2022-10-19T03:53:22.368Z,33.33
2022-10-19T03:53:52.372Z,33.15
2022-10-19T03:54:25.031Z,33.22
2022-10-19T03:54:52.471Z,33.50
2022-10-19T03:55:22.478Z,33.47
2022-10-19T03:55:52.485Z,33.60
2022-10-19T03:56:22.481Z,33.41
2022-10-19T03:56:52.467Z,33.41
2022-10-19T03:57:22.623Z,33.65
2022-10-19T03:57:52.667Z,33.73
2022-10-19T03:58:22.657Z,33.80
2022-10-19T03:58:52.679Z,33.80
2022-10-19T03:59:23.206Z,33.78
2022-10-19T03:59:52.705Z,33.76
2022-10-19T04:00:22.692Z,33.69
2022-10-19T04:00:52.797Z,33.54
2022-10-19T04:01:22.820Z,33.49
2022-10-19T04:01:52.835Z,33.45
2022-10-19T04:02:22.813Z,33.44
2022-10-19T04:02:52.811Z,33.77
2022-10-19T04:03:22.879Z,33.78
2022-10-19T04:03:52.920Z,33.79
2022-10-19T04:04:23.001Z,33.69
2022-10-19T04:04:53.013Z,33.67
2022-10-19T04:05:23.687Z,33.63
2022-10-19T04:05:53.033Z,33.72
2022-10-19T04:06:23.044Z,33.70
2022-10-19T04:06:53.024Z,33.71
2022-10-19T04:07:23.734Z,33.83
2022-10-19T04:07:53.099Z,33.88
2022-10-19T04:08:23.117Z,33.81
2022-10-19T04:08:53.105Z,33.79
2022-10-19T04:09:23.095Z,33.85
2022-10-19T04:09:53.776Z,33.87
2022-10-19T04:10:23.153Z,33.95
2022-10-19T04:10:53.131Z,33.96
2022-10-19T04:11:23.210Z,33.86
2022-10-19T04:11:53.180Z,33.81
2022-10-19T04:12:23.286Z,34.02
2022-10-19T04:12:53.989Z,34.14
2022-10-19T04:13:26.191Z,33.54
2022-10-19T04:13:53.410Z,33.27
2022-10-19T04:14:32.237Z,33.38
2022-10-19T04:14:57.424Z,33.12
2022-10-19T04:15:23.471Z,33.44
2022-10-19T04:15:53.478Z,33.44
2022-10-19T04:16:24.247Z,33.73
2022-10-19T04:16:53.580Z,33.54
2022-10-19T04:17:23.593Z,33.99
2022-10-19T04:17:53.664Z,33.84
2022-10-19T04:18:23.668Z,33.92
2022-10-19T04:18:53.657Z,33.84
2022-10-19T04:19:23.659Z,33.39
2022-10-19T04:19:53.725Z,33.29
2022-10-19T04:20:23.714Z,33.57
2022-10-19T04:20:53.690Z,33.74
2022-10-19T04:21:23.719Z,33.66
2022-10-19T04:21:53.692Z,33.72
2022-10-19T04:22:23.679Z,33.46
2022-10-19T04:22:53.705Z,33.31
2022-10-19T04:23:23.707Z,33.62
2022-10-19T04:23:53.704Z,33.25
2022-10-19T04:24:23.708Z,33.74
2022-10-19T04:24:53.712Z,33.49
2022-10-19T04:25:24.206Z,33.30
2022-10-19T04:25:53.757Z,32.90
2022-10-19T04:26:23.748Z,33.42
2022-10-19T04:26:54.723Z,33.57
2022-10-19T04:27:23.790Z,33.24
2022-10-19T04:27:53.778Z,33.18
2022-10-19T04:28:23.786Z,33.41
2022-10-19T04:28:53.844Z,33.77
2022-10-19T04:29:26.389Z,33.21
2022-10-19T04:29:53.840Z,33.24
2022-10-19T04:30:23.819Z,33.82
2022-10-19T04:30:53.819Z,33.24
2022-10-19T04:31:23.838Z,33.20
2022-10-19T04:31:53.841Z,33.22
2022-10-19T04:32:23.838Z,33.31
2022-10-19T04:32:53.813Z,33.61
2022-10-19T04:33:23.833Z,32.78
2022-10-19T04:33:53.810Z,31.02
2022-10-19T04:34:23.859Z,32.22
2022-10-19T04:34:53.855Z,36.25
2022-10-19T04:35:23.933Z,43.84
2022-10-19T04:35:54.045Z,60.38
2022-10-19T04:36:24.719Z,62.89
2022-10-19T04:36:54.732Z,62.53
2022-10-19T04:37:24.701Z,61.64
2022-10-19T04:37:54.055Z,60.94
2022-10-19T04:38:24.039Z,57.19
2022-10-19T04:38:54.030Z,50.10
2022-10-19T04:39:24.706Z,42.08
2022-10-19T04:39:54.029Z,34.75
2022-10-19T04:40:24.116Z,33.53
2022-10-19T04:40:54.713Z,31.29
2022-10-19T04:41:24.200Z,31.44
2022-10-19T04:41:54.173Z,40.56
2022-10-19T04:42:25.240Z,40.02
2022-10-19T04:42:54.270Z,38.95
2022-10-19T04:43:24.267Z,37.12
2022-10-19T04:43:54.246Z,33.44
2022-10-19T04:44:54.217Z,31.74
2022-10-19T04:45:24.738Z,31.03
2022-10-19T04:45:54.185Z,31.61
2022-10-19T04:46:24.191Z,32.11
2022-10-19T04:46:54.186Z,33.45
2022-10-19T04:47:24.327Z,30.97
2022-10-19T04:47:54.315Z,30.77
2022-10-19T04:48:24.326Z,30.85
2022-10-19T04:48:54.338Z,30.74
2022-10-19T04:49:24.333Z,30.79
2022-10-19T04:49:54.339Z,31.02
2022-10-19T04:50:24.321Z,30.79
2022-10-19T04:50:55.201Z,30.95
2022-10-19T04:51:24.434Z,30.82
2022-10-19T04:51:54.421Z,30.78
2022-10-19T04:52:24.405Z,33.10
2022-10-19T04:52:54.397Z,34.12
2022-10-19T04:53:56.953Z,43.83
2022-10-19T04:54:24.485Z,43.56
2022-10-19T04:54:54.565Z,35.55
2022-10-19T04:55:24.632Z,30.84
2022-10-19T04:55:54.608Z,30.74
2022-10-19T04:56:24.653Z,31.04
2022-10-19T04:56:54.632Z,30.97
2022-10-19T04:57:25.260Z,30.79
2022-10-19T04:57:55.206Z,31.09
2022-10-19T04:58:24.795Z,30.83
2022-10-19T04:58:54.783Z,31.03
2022-10-19T04:59:24.749Z,30.79
2022-10-19T04:59:55.715Z,31.39
2022-10-19T05:00:24.869Z,31.00
2022-10-19T05:00:54.908Z,30.81
2022-10-19T05:01:25.030Z,36.15
2022-10-19T05:01:54.939Z,38.73
2022-10-19T05:02:25.027Z,36.90
2022-10-19T05:02:55.018Z,37.58
2022-10-19T05:03:25.788Z,36.44
2022-10-19T05:03:58.255Z,30.70
2022-10-19T05:04:25.214Z,32.18
2022-10-19T05:04:55.197Z,30.95
2022-10-19T05:05:25.184Z,30.99
2022-10-19T05:05:55.309Z,30.98
2022-10-19T05:06:25.307Z,31.32
2022-10-19T05:06:55.193Z,31.60
2022-10-19T05:07:25.182Z,31.09
2022-10-19T05:07:55.159Z,30.88
2022-10-19T05:08:25.210Z,30.77
2022-10-19T05:08:55.200Z,30.97
2022-10-19T05:09:25.180Z,30.97
2022-10-19T05:09:55.198Z,30.88
2022-10-19T05:10:25.184Z,31.05
2022-10-19T05:10:55.196Z,31.73
2022-10-19T05:11:25.230Z,33.15
2022-10-19T05:11:55.235Z,32.10
2022-10-19T05:12:25.233Z,30.86
2022-10-19T05:12:55.728Z,30.77
2022-10-19T05:13:25.298Z,30.74
2022-10-19T05:13:55.347Z,30.74
2022-10-19T05:14:25.353Z,30.77
2022-10-19T05:14:55.379Z,30.85
2022-10-19T05:15:25.472Z,31.11
2022-10-19T05:15:55.439Z,31.12
2022-10-19T05:16:25.648Z,31.60
2022-10-19T05:16:55.514Z,30.90
2022-10-19T05:17:25.509Z,30.97
2022-10-19T05:17:55.524Z,31.27
2022-10-19T05:18:25.541Z,30.96
2022-10-19T05:18:55.553Z,30.90
2022-10-19T05:19:25.539Z,31.56
2022-10-19T05:19:55.556Z,31.16
2022-10-19T05:20:25.533Z,32.30
2022-10-19T05:20:55.527Z,33.40
2022-10-19T05:21:26.253Z,36.53
2022-10-19T05:21:55.628Z,40.47
2022-10-19T05:22:25.613Z,42.33
2022-10-19T05:22:55.725Z,37.08
2022-10-19T05:23:25.769Z,44.79
2022-10-19T05:23:55.789Z,37.92
2022-10-19T05:24:25.783Z,38.28
2022-10-19T05:24:58.179Z,41.95
2022-10-19T05:25:25.826Z,35.85
2022-10-19T05:25:55.812Z,39.50
2022-10-19T05:26:25.831Z,37.43
2022-10-19T05:26:55.835Z,35.84
2022-10-19T05:27:25.884Z,35.49
2022-10-19T05:27:55.877Z,35.60
2022-10-19T05:28:25.928Z,32.68
2022-10-19T05:28:56.004Z,31.19
2022-10-19T05:29:25.996Z,32.83
2022-10-19T05:29:55.972Z,38.00
2022-10-19T05:30:26.055Z,42.70
2022-10-19T05:30:56.726Z,39.12
2022-10-19T05:31:26.794Z,44.00
2022-10-19T05:31:56.115Z,36.83
2022-10-19T05:32:26.213Z,37.87
2022-10-19T05:32:56.216Z,32.85
2022-10-19T05:33:26.208Z,31.48
2022-10-19T05:33:56.435Z,31.40
2022-10-19T05:34:26.235Z,32.47
2022-10-19T05:34:56.326Z,32.64
2022-10-19T05:35:26.407Z,32.29
2022-10-19T05:35:56.389Z,34.01
2022-10-19T05:36:26.418Z,34.40
2022-10-19T05:36:56.443Z,33.78
2022-10-19T05:37:27.239Z,36.18
2022-10-19T05:37:56.471Z,35.44
2022-10-19T05:38:27.275Z,35.88
2022-10-19T05:38:56.602Z,36.45
2022-10-19T05:39:26.587Z,35.42
2022-10-19T05:39:56.563Z,34.93
2022-10-19T05:40:26.589Z,35.62
2022-10-19T05:40:56.571Z,35.14
2022-10-19T05:41:26.565Z,35.94
2022-10-19T05:41:56.546Z,37.76
2022-10-19T05:42:26.631Z,36.24
2022-10-19T05:42:56.622Z,35.87
2022-10-19T05:43:26.612Z,40.23
2022-10-19T05:43:56.687Z,38.86
2022-10-19T05:44:26.849Z,36.89
2022-10-19T05:44:56.814Z,36.27
2022-10-19T05:45:26.897Z,35.51
2022-10-19T05:45:56.868Z,34.44
2022-10-19T05:46:26.974Z,43.27
2022-10-19T05:46:56.953Z,35.30
2022-10-19T05:47:28.792Z,36.39
2022-10-19T05:47:57.076Z,34.28
2022-10-19T05:48:27.079Z,34.46
2022-10-19T05:48:57.069Z,35.12
2022-10-19T05:49:27.160Z,34.84
2022-10-19T05:49:57.173Z,37.55
2022-10-19T05:50:27.083Z,43.81
2022-10-19T05:50:57.068Z,39.75
2022-10-19T05:51:27.045Z,37.58
2022-10-19T05:51:57.034Z,39.82
2022-10-19T05:52:27.276Z,37.21
2022-10-19T05:52:57.173Z,35.69
2022-10-19T05:53:27.202Z,35.79
2022-10-19T05:53:57.211Z,36.43
2022-10-19T05:54:28.557Z,35.19
2022-10-19T05:54:57.309Z,34.49
2022-10-19T05:55:27.342Z,35.07
2022-10-19T05:55:57.308Z,36.30
2022-10-19T05:56:27.290Z,34.29
2022-10-19T05:56:57.397Z,35.21
2022-10-19T05:57:27.368Z,41.27
2022-10-19T05:57:57.364Z,34.32
2022-10-19T05:58:27.372Z,34.24
2022-10-19T05:58:57.355Z,35.22
2022-10-19T05:59:27.453Z,36.25
2022-10-19T05:59:57.454Z,36.68
2022-10-19T06:00:27.447Z,36.61
2022-10-19T06:00:57.445Z,36.19
2022-10-19T06:01:27.449Z,36.55
2022-10-19T06:01:57.509Z,37.04
2022-10-19T06:02:27.476Z,36.59
2022-10-19T06:02:59.175Z,37.01
2022-10-19T06:03:27.624Z,36.74
2022-10-19T06:03:57.670Z,36.73
2022-10-19T06:04:27.657Z,36.73
2022-10-19T06:04:58.954Z,36.63
2022-10-19T06:05:27.809Z,34.49
2022-10-19T06:05:57.742Z,34.15
2022-10-19T06:06:27.797Z,34.50
2022-10-19T06:06:57.967Z,34.14
2022-10-19T06:07:27.824Z,34.68
2022-10-19T06:07:57.819Z,34.49
2022-10-19T06:08:27.823Z,33.87
2022-10-19T06:08:58.768Z,34.27
2022-10-19T06:09:27.985Z,34.07
2022-10-19T06:09:57.893Z,34.46
2022-10-19T06:10:27.967Z,34.30
2022-10-19T06:10:58.813Z,34.75
2022-10-19T06:11:27.976Z,36.79
2022-10-19T06:11:58.005Z,37.74
2022-10-19T06:12:28.012Z,36.50
2022-10-19T06:12:58.054Z,37.15
2022-10-19T06:13:28.110Z,37.75
2022-10-19T06:15:16.637Z,44.73
2022-10-19T06:15:47.474Z,49.23
2022-10-19T06:16:16.667Z,46.55
2022-10-19T06:16:46.719Z,34.80
2022-10-19T06:17:17.486Z,34.54
2022-10-19T06:17:46.784Z,34.98
2022-10-19T06:18:16.834Z,35.28
2022-10-19T06:18:47.551Z,40.12
2022-10-19T06:19:16.962Z,38.31
2022-10-19T06:19:47.964Z,38.01
2022-10-19T06:20:17.074Z,35.80
2022-10-19T06:20:48.067Z,34.86
2022-10-19T06:21:17.140Z,34.48
2022-10-19T06:21:47.231Z,34.66
2022-10-19T06:22:17.286Z,34.84
2022-10-19T06:22:47.339Z,35.78
2022-10-19T06:23:17.405Z,39.97
2022-10-19T06:23:47.487Z,32.71
2022-10-19T06:24:17.525Z,36.50
2022-10-19T06:24:47.580Z,34.22
2022-10-19T06:25:20.196Z,35.60
2022-10-19T06:25:47.679Z,43.10
2022-10-19T06:26:17.718Z,33.21
2022-10-19T06:26:47.797Z,35.98
2022-10-19T06:27:17.882Z,39.42
2022-10-19T06:27:48.014Z,32.97
2022-10-19T06:28:18.496Z,31.95
2022-10-19T06:28:47.996Z,31.92